createdAt,value
2022-07-27T00:00:19.578Z,16.70
2022-07-27T00:03:23.754Z,18.80
2022-07-27T00:06:26.949Z,16.80
2022-07-27T00:09:32.000Z,16.90
2022-07-27T00:12:35.447Z,16.90
2022-07-27T00:15:38.922Z,16.90
2022-07-27T00:18:42.365Z,16.90
2022-07-27T00:21:46.517Z,16.90
2022-07-27T00:24:51.727Z,15.00
2022-07-27T00:27:57.257Z,17.00
2022-07-27T00:31:00.791Z,17.00
2022-07-27T00:34:04.212Z,16.90
2022-07-27T00:37:07.579Z,17.00
2022-07-27T00:40:13.309Z,17.00
2022-07-27T00:43:16.652Z,17.20
2022-07-27T00:46:20.158Z,16.90
2022-07-27T00:49:24.026Z,19.30
2022-07-27T00:52:30.080Z,16.90
2022-07-27T00:55:36.536Z,16.90
2022-07-27T00:58:40.761Z,19.20
2022-07-27T01:01:44.600Z,17.00
2022-07-27T01:04:48.207Z,17.00
2022-07-27T01:07:52.173Z,18.30
2022-07-27T01:11:00.333Z,17.00
2022-07-27T01:14:03.747Z,16.90
2022-07-27T01:17:08.716Z,16.90
2022-07-27T01:20:12.686Z,17.50
2022-07-27T01:23:17.684Z,17.00
2022-07-27T01:26:21.569Z,18.00
2022-07-27T01:29:24.992Z,18.80
2022-07-27T01:32:28.420Z,17.00
2022-07-27T01:35:33.908Z,17.30
2022-07-27T01:38:38.729Z,17.90
2022-07-27T01:41:42.205Z,17.10
2022-07-27T01:44:45.670Z,17.20
2022-07-27T01:47:49.268Z,17.00
2022-07-27T01:50:52.963Z,17.10
2022-07-27T01:53:57.715Z,17.10
2022-07-27T01:57:01.131Z,17.10
2022-07-27T02:00:05.823Z,17.10
2022-07-27T02:03:13.056Z,17.10
2022-07-27T02:06:16.453Z,17.20
2022-07-27T02:09:25.820Z,15.00
2022-07-27T02:12:38.591Z,17.00
2022-07-27T02:15:44.483Z,16.90
2022-07-27T02:18:49.009Z,16.90
2022-07-27T02:21:52.408Z,16.70
2022-07-27T02:24:58.291Z,17.00
2022-07-27T02:28:01.714Z,16.90
2022-07-27T02:31:05.574Z,16.90
2022-07-27T02:34:08.948Z,16.90
2022-07-27T02:37:12.328Z,16.90
2022-07-27T02:40:18.700Z,16.80
2022-07-27T02:43:21.999Z,16.90
2022-07-27T02:46:28.175Z,16.80
2022-07-27T02:49:31.666Z,16.90
2022-07-27T02:52:35.203Z,16.60
2022-07-27T02:55:40.241Z,16.90
2022-07-27T02:58:43.749Z,16.80
2022-07-27T03:01:48.890Z,16.90
2022-07-27T03:04:52.399Z,16.80
2022-07-27T03:07:56.217Z,16.80
2022-07-27T03:11:01.081Z,16.90
2022-07-27T03:14:05.315Z,16.80
2022-07-27T03:17:08.983Z,16.80
2022-07-27T03:20:13.476Z,16.90
2022-07-27T03:23:18.703Z,16.80
2022-07-27T03:26:25.114Z,16.90
2022-07-27T03:29:29.539Z,16.80
2022-07-27T03:32:33.323Z,16.80
2022-07-27T03:35:37.038Z,16.90
2022-07-27T03:38:40.880Z,16.90
2022-07-27T03:41:45.599Z,16.90
2022-07-27T03:44:48.950Z,16.90
2022-07-27T03:47:52.541Z,14.90
2022-07-27T03:50:57.391Z,16.90
2022-07-27T03:54:00.827Z,16.90
2022-07-27T03:57:05.882Z,16.90
2022-07-27T04:00:12.519Z,16.90
2022-07-27T04:03:15.825Z,16.90
2022-07-27T04:06:19.213Z,16.90
2022-07-27T04:09:22.711Z,15.60
2022-07-27T04:12:29.418Z,16.90
2022-07-27T04:15:33.255Z,17.00
2022-07-27T04:18:36.822Z,17.00
2022-07-27T04:21:40.736Z,17.00
2022-07-27T04:24:44.073Z,16.30
2022-07-27T04:27:48.830Z,17.10
2022-07-27T04:30:52.377Z,17.10
2022-07-27T04:33:56.025Z,17.10
2022-07-27T04:36:59.464Z,19.30
2022-07-27T04:40:03.820Z,17.80
2022-07-27T04:43:08.571Z,17.00
2022-07-27T04:46:15.355Z,17.00
2022-07-27T04:49:19.018Z,17.00
2022-07-27T04:52:26.456Z,18.40
2022-07-27T04:55:30.646Z,15.30
2022-07-27T04:58:35.408Z,19.00
2022-07-27T05:01:38.766Z,16.80
2022-07-27T05:04:42.206Z,16.70
2022-07-27T05:07:45.717Z,16.80
2022-07-27T05:10:49.443Z,18.70
2022-07-27T05:13:54.164Z,16.60
2022-07-27T05:16:57.763Z,16.60
2022-07-27T05:20:01.830Z,16.70
2022-07-27T05:23:05.327Z,16.70
2022-07-27T05:26:08.954Z,18.60
2022-07-27T05:29:14.155Z,16.70
2022-07-27T05:32:18.291Z,16.70
2022-07-27T05:35:22.348Z,16.80
2022-07-27T05:38:25.722Z,16.80
2022-07-27T05:41:29.401Z,16.80
2022-07-27T05:44:34.755Z,16.80
2022-07-27T05:47:38.467Z,17.20
2022-07-27T05:50:41.809Z,16.90
2022-07-27T05:53:45.574Z,16.90
2022-07-27T05:56:49.841Z,16.90
2022-07-27T05:59:54.653Z,17.00
2022-07-27T06:02:57.992Z,15.50
2022-07-27T06:06:18.576Z,17.10
2022-07-27T06:09:22.730Z,17.10
2022-07-27T06:12:29.977Z,17.20
2022-07-27T06:15:35.992Z,18.40
2022-07-27T06:18:39.782Z,17.30
2022-07-27T06:21:43.221Z,17.40
2022-07-27T06:24:46.709Z,17.50
2022-07-27T06:27:50.356Z,17.50
2022-07-27T06:30:55.345Z,17.50
2022-07-27T06:34:01.922Z,16.40
2022-07-27T06:37:05.645Z,17.60
2022-07-27T06:40:10.729Z,17.70
2022-07-27T06:43:14.455Z,17.70
2022-07-27T06:46:19.243Z,19.00
2022-07-27T06:49:22.698Z,19.20
2022-07-27T06:52:26.080Z,17.80
2022-07-27T06:55:29.683Z,17.80
2022-07-27T06:58:33.388Z,17.80
2022-07-27T07:01:38.489Z,17.80
2022-07-27T07:04:41.948Z,17.90
2022-07-27T07:07:45.363Z,17.90
2022-07-27T07:10:48.735Z,17.90
2022-07-27T07:13:52.001Z,17.90
2022-07-27T07:16:56.741Z,17.90
2022-07-27T07:20:00.080Z,17.90
2022-07-27T07:23:04.724Z,18.00
2022-07-27T07:26:08.407Z,18.10
2022-07-27T07:29:12.478Z,16.20
2022-07-27T07:32:22.717Z,18.30
2022-07-27T07:35:27.210Z,18.40
2022-07-27T07:38:31.829Z,19.10
2022-07-27T07:41:37.518Z,18.50
2022-07-27T07:44:41.696Z,16.60
2022-07-27T07:47:46.705Z,18.40
2022-07-27T07:50:52.295Z,18.40
2022-07-27T07:53:56.705Z,18.50
2022-07-27T07:57:02.480Z,18.50
2022-07-27T08:00:08.836Z,18.90
2022-07-27T08:03:13.661Z,20.40
2022-07-27T08:06:17.062Z,18.60
2022-07-27T08:09:21.805Z,18.60
2022-07-27T08:12:25.072Z,18.60
2022-07-27T08:15:35.979Z,19.10
2022-07-27T08:18:41.000Z,18.70
2022-07-27T08:21:44.643Z,18.70
2022-07-27T08:24:48.047Z,18.80
2022-07-27T08:27:51.980Z,18.80
2022-07-27T08:30:56.848Z,18.90
2022-07-27T08:34:01.711Z,18.90
2022-07-27T08:37:05.186Z,19.00
2022-07-27T08:43:33.306Z,19.00
2022-07-27T08:46:40.794Z,19.00
2022-07-27T08:49:49.456Z,19.10
2022-07-27T08:52:58.401Z,19.10
2022-07-27T08:56:02.960Z,19.10
2022-07-27T08:59:06.720Z,19.20
2022-07-27T09:02:14.812Z,20.10
2022-07-27T09:05:20.220Z,19.80
2022-07-27T09:08:30.368Z,19.40
2022-07-27T09:11:36.595Z,19.50
2022-07-27T09:14:42.304Z,19.70
2022-07-27T09:17:49.511Z,19.80
2022-07-27T09:21:19.843Z,20.20
2022-07-27T09:24:45.494Z,20.10
2022-07-27T09:27:50.595Z,22.10
2022-07-27T09:30:53.919Z,20.10
2022-07-27T09:34:00.583Z,19.90
2022-07-27T09:37:06.654Z,20.30
2022-07-27T09:40:16.553Z,20.30
2022-07-27T09:46:52.448Z,22.10
2022-07-27T09:49:58.689Z,20.50
2022-07-27T09:53:41.861Z,20.60
2022-07-27T09:56:44.877Z,20.60
2022-07-27T09:59:49.154Z,22.00
2022-07-27T10:02:55.161Z,20.80
2022-07-27T10:05:59.412Z,20.90
2022-07-27T10:09:04.781Z,21.00
2022-07-27T10:12:09.653Z,21.10
2022-07-27T10:15:13.758Z,21.50
2022-07-27T10:18:25.700Z,21.30
2022-07-27T10:21:29.951Z,21.30
2022-07-27T10:24:37.146Z,21.40
2022-07-27T10:27:41.205Z,21.50
2022-07-27T10:30:47.239Z,21.70
2022-07-27T10:33:58.196Z,21.80
2022-07-27T10:37:12.199Z,21.90
2022-07-27T10:40:36.159Z,22.00
2022-07-27T10:43:39.808Z,22.00
2022-07-27T10:46:45.851Z,22.10
2022-07-27T10:49:49.205Z,22.10
2022-07-27T10:52:55.839Z,22.10
2022-07-27T10:56:01.325Z,22.10
2022-07-27T10:59:04.817Z,22.10
2022-07-27T11:02:10.484Z,22.00
2022-07-27T11:08:47.048Z,21.90
2022-07-27T11:11:55.866Z,21.90
2022-07-27T11:15:02.246Z,21.90
2022-07-27T11:18:06.647Z,22.00
2022-07-27T11:21:25.828Z,22.10
2022-07-27T11:24:30.408Z,22.20
2022-07-27T11:27:47.457Z,22.30
2022-07-27T11:30:51.508Z,22.40
2022-07-27T11:33:59.403Z,22.50
2022-07-27T11:37:05.810Z,22.60
2022-07-27T11:40:53.316Z,22.90
2022-07-27T11:43:39.387Z,22.80
2022-07-27T11:46:46.085Z,22.90
2022-07-27T11:49:49.546Z,22.90
2022-07-27T11:53:01.538Z,23.00
2022-07-27T11:56:05.708Z,23.00
2022-07-27T11:59:15.366Z,23.10
2022-07-27T12:02:22.189Z,22.90
2022-07-27T12:05:26.906Z,23.10
2022-07-27T12:08:30.319Z,23.10
2022-07-27T12:12:01.150Z,22.90
2022-07-27T12:15:44.547Z,22.90
2022-07-27T12:18:44.022Z,22.70
2022-07-27T12:21:53.824Z,22.60
2022-07-27T12:24:59.419Z,22.50
2022-07-27T12:28:05.789Z,22.30
2022-07-27T12:31:18.980Z,23.00
2022-07-27T12:34:22.436Z,22.10
2022-07-27T12:37:32.473Z,22.00
2022-07-27T12:40:44.965Z,21.90
2022-07-27T12:44:06.854Z,21.80
2022-07-27T12:47:44.206Z,22.20
2022-07-27T12:50:50.450Z,21.60
2022-07-27T12:53:53.821Z,21.60
2022-07-27T12:56:57.218Z,21.60
2022-07-27T13:00:00.989Z,21.60
2022-07-27T13:03:10.907Z,21.60
2022-07-27T13:06:14.241Z,21.70
2022-07-27T13:09:17.875Z,22.10
2022-07-27T13:12:22.108Z,21.80
2022-07-27T13:15:25.859Z,21.80
2022-07-27T13:18:30.820Z,22.00
2022-07-27T13:21:34.577Z,22.00
2022-07-27T13:24:38.019Z,24.00
2022-07-27T13:27:41.487Z,22.00
2022-07-27T13:30:45.195Z,22.00
2022-07-27T13:33:50.730Z,21.90
2022-07-27T13:36:54.402Z,22.20
2022-07-27T13:39:58.157Z,21.80
2022-07-27T13:43:01.533Z,21.70
2022-07-27T13:46:08.429Z,21.70
2022-07-27T13:49:13.814Z,23.60
2022-07-27T13:52:17.596Z,21.70
2022-07-27T13:55:26.209Z,21.60
2022-07-27T13:58:31.845Z,21.70
2022-07-27T14:01:37.521Z,21.70
2022-07-27T14:04:45.743Z,21.60
2022-07-27T14:07:49.476Z,21.60
2022-07-27T14:10:53.332Z,21.70
2022-07-27T14:13:56.896Z,21.70
2022-07-27T14:17:00.551Z,21.70
2022-07-27T14:20:06.373Z,21.70
2022-07-27T14:23:10.578Z,20.60
2022-07-27T14:26:14.570Z,23.10
2022-07-27T14:29:17.690Z,21.70
2022-07-27T14:32:20.996Z,21.70
2022-07-27T14:35:25.685Z,22.70
2022-07-27T14:38:30.550Z,21.70
2022-07-27T14:41:35.374Z,21.80
2022-07-27T14:44:38.830Z,21.70
2022-07-27T14:47:42.108Z,20.70
2022-07-27T14:50:48.311Z,21.80
2022-07-27T14:53:51.847Z,21.70
2022-07-27T14:56:57.210Z,21.70
2022-07-27T15:00:00.708Z,21.70
2022-07-27T15:03:04.614Z,21.70
2022-07-27T15:06:10.081Z,21.70
2022-07-27T15:09:13.767Z,21.70
2022-07-27T15:12:17.445Z,23.00
2022-07-27T15:15:20.797Z,21.70
2022-07-27T15:18:29.538Z,21.70
2022-07-27T15:21:34.785Z,22.20
2022-07-27T15:24:38.623Z,21.80
2022-07-27T15:27:42.075Z,22.90
2022-07-27T15:30:45.403Z,21.70
2022-07-27T15:33:48.963Z,21.80
2022-07-27T15:36:53.706Z,19.90
2022-07-27T15:40:01.339Z,21.80
2022-07-27T15:43:05.326Z,21.90
2022-07-27T15:46:09.488Z,21.80
2022-07-27T15:49:14.257Z,21.80
2022-07-27T15:52:19.195Z,21.70
2022-07-27T15:55:22.734Z,22.90
2022-07-27T15:58:26.393Z,20.80
2022-07-27T16:01:35.107Z,23.10
2022-07-27T16:04:39.343Z,21.50
2022-07-27T16:07:44.302Z,21.60
2022-07-27T16:10:49.937Z,21.50
2022-07-27T16:13:53.966Z,21.50
2022-07-27T16:16:57.274Z,21.50
2022-07-27T16:20:00.883Z,21.50
2022-07-27T16:23:17.934Z,20.60
2022-07-27T16:26:25.982Z,21.50
2022-07-27T16:29:29.495Z,21.90
2022-07-27T16:32:33.540Z,21.40
2022-07-27T16:35:38.560Z,21.40
2022-07-27T16:38:50.273Z,19.40
2022-07-27T16:41:54.945Z,21.30
2022-07-27T16:44:58.571Z,22.10
2022-07-27T16:48:02.022Z,21.30
2022-07-27T16:51:05.499Z,21.30
2022-07-27T16:54:11.831Z,21.40
2022-07-27T16:57:15.111Z,21.40
2022-07-27T17:00:19.614Z,21.40
2022-07-27T17:03:23.619Z,21.30
2022-07-27T17:06:27.393Z,21.30
2022-07-27T17:09:32.067Z,21.30
2022-07-27T17:12:38.795Z,21.30
2022-07-27T17:15:42.766Z,21.30
2022-07-27T17:18:46.330Z,21.20
2022-07-27T17:21:52.190Z,21.20
2022-07-27T17:24:56.840Z,21.20
2022-07-27T17:28:00.313Z,22.70
2022-07-27T17:31:04.582Z,21.10
2022-07-27T17:34:08.004Z,21.00
2022-07-27T17:37:11.332Z,21.00
2022-07-27T17:40:16.467Z,21.00
2022-07-27T17:43:19.991Z,21.00
2022-07-27T17:46:25.091Z,20.90
2022-07-27T17:49:28.826Z,20.90
2022-07-27T17:52:36.583Z,20.90
2022-07-27T17:55:43.154Z,20.90
2022-07-27T17:58:47.449Z,21.20
2022-07-27T18:01:51.104Z,20.90
2022-07-27T18:04:54.876Z,20.90
2022-07-27T18:07:58.368Z,20.90
2022-07-27T18:11:03.664Z,20.90
2022-07-27T18:14:06.960Z,22.60
2022-07-27T18:17:10.325Z,20.90
2022-07-27T18:20:13.812Z,20.90
2022-07-27T18:23:17.584Z,20.90
2022-07-27T18:26:22.245Z,20.80
2022-07-27T18:29:25.736Z,22.00
2022-07-27T18:32:29.319Z,20.70
2022-07-27T18:35:33.388Z,20.90
2022-07-27T18:38:36.582Z,20.60
2022-07-27T18:41:41.557Z,20.50
2022-07-27T18:44:45.948Z,20.40
2022-07-27T18:47:49.884Z,20.40
2022-07-27T18:50:54.385Z,20.30
2022-07-27T18:53:57.810Z,20.10
2022-07-27T18:57:02.606Z,20.10
2022-07-27T19:00:08.724Z,20.00
2022-07-27T19:03:12.249Z,21.80
2022-07-27T19:06:18.197Z,19.80
2022-07-27T19:09:22.604Z,19.70
2022-07-27T19:12:27.721Z,19.60
2022-07-27T19:15:32.788Z,19.30
2022-07-27T19:18:36.183Z,19.40
2022-07-27T19:21:39.507Z,19.40
2022-07-27T19:24:42.903Z,19.30
2022-07-27T19:27:48.155Z,17.90
2022-07-27T19:30:51.601Z,19.10
2022-07-27T19:33:57.141Z,18.50
2022-07-27T19:37:00.483Z,18.80
2022-07-27T19:40:33.671Z,18.80
2022-07-27T19:43:31.598Z,18.70
2022-07-27T19:46:35.605Z,18.60
2022-07-27T19:49:39.440Z,18.60
2022-07-27T19:52:43.084Z,16.30
2022-07-27T19:55:46.866Z,18.40
2022-07-27T19:58:51.726Z,18.30
2022-07-27T20:01:55.400Z,17.30
2022-07-27T20:04:59.340Z,18.70
2022-07-27T20:08:03.217Z,18.10
2022-07-27T20:11:07.001Z,18.00
2022-07-27T20:14:11.738Z,18.00
2022-07-27T20:17:15.955Z,17.90
2022-07-27T20:20:20.080Z,17.80
2022-07-27T20:23:23.606Z,17.80
2022-07-27T20:26:26.951Z,18.70
2022-07-27T20:29:33.071Z,17.70
2022-07-27T20:32:36.957Z,17.50
2022-07-27T20:35:41.077Z,17.40
2022-07-27T20:38:46.050Z,17.50
2022-07-27T20:41:49.154Z,17.40
2022-07-27T20:44:54.558Z,17.40
2022-07-27T20:47:57.864Z,17.30
2022-07-27T20:51:01.520Z,17.20
2022-07-27T20:54:05.615Z,17.20
2022-07-27T20:57:09.365Z,17.10
2022-07-27T21:00:16.200Z,17.00
2022-07-27T21:03:19.662Z,17.00
2022-07-27T21:06:22.902Z,17.00
2022-07-27T21:09:26.397Z,16.90
2022-07-27T21:12:29.988Z,16.80
2022-07-27T21:15:34.991Z,16.80
2022-07-27T21:18:38.298Z,16.70
2022-07-27T21:21:41.909Z,16.70
2022-07-27T21:24:46.394Z,16.60
2022-07-27T21:27:53.097Z,16.60
2022-07-27T21:30:58.905Z,16.50
2022-07-27T21:34:02.249Z,16.50
2022-07-27T21:37:05.626Z,16.50
2022-07-27T21:40:11.373Z,16.40
2022-07-27T21:43:14.696Z,16.40
2022-07-27T21:46:19.598Z,16.30
2022-07-27T21:49:28.945Z,16.90
2022-07-27T21:52:46.332Z,16.20
2022-07-27T21:55:49.736Z,16.20
2022-07-27T21:58:53.318Z,14.90
2022-07-27T22:01:59.853Z,16.20
2022-07-27T22:05:03.449Z,15.60
2022-07-27T22:08:07.223Z,16.10
2022-07-27T22:11:11.566Z,16.10
2022-07-27T22:14:15.614Z,16.10
2022-07-27T22:17:20.619Z,16.00
2022-07-27T22:20:24.915Z,16.00
2022-07-27T22:23:28.145Z,16.00
2022-07-27T22:26:31.649Z,16.00
2022-07-27T22:29:34.991Z,15.90
2022-07-27T22:32:40.601Z,15.90
2022-07-27T22:35:44.094Z,15.90
2022-07-27T22:38:47.472Z,15.80
2022-07-27T22:41:51.074Z,15.80
2022-07-27T22:44:54.449Z,15.80
2022-07-27T22:47:59.363Z,15.70
2022-07-27T22:51:04.718Z,15.40
2022-07-27T22:54:08.152Z,16.90
2022-07-27T22:57:12.251Z,15.60
2022-07-27T23:00:16.413Z,15.60
2022-07-27T23:03:21.217Z,15.60
2022-07-27T23:06:24.715Z,17.30
2022-07-27T23:09:28.262Z,15.40
2022-07-27T23:12:31.642Z,15.40
2022-07-27T23:15:34.972Z,15.30
2022-07-27T23:18:39.695Z,15.30
2022-07-27T23:21:43.208Z,15.20
2022-07-27T23:24:46.515Z,15.20
2022-07-27T23:27:49.955Z,15.10
2022-07-27T23:30:53.457Z,15.10
2022-07-27T23:33:58.376Z,15.10
2022-07-27T23:37:02.088Z,15.10
2022-07-27T23:40:07.701Z,16.60
2022-07-27T23:43:11.832Z,15.00
2022-07-27T23:46:15.280Z,15.00
2022-07-27T23:49:20.210Z,14.90
2022-07-27T23:52:23.611Z,14.80
2022-07-27T23:55:27.223Z,14.80
2022-07-27T23:58:31.320Z,14.70
